sensor_id;sensor_type;location;lat;lon;timestamp;pressure;altitude;pressure_sealevel;temperature;humidity
12213;BME280;6169;44.158;22.788;2023-06-04T00:01:56;101409.19;;;21.08;64.72
12213;BME280;6169;44.158;22.788;2023-06-04T00:07:01;101417.97;;;20.81;65.45
12213;BME280;6169;44.158;22.788;2023-06-04T00:12:03;101401.03;;;20.93;65.08
12213;BME280;6169;44.158;22.788;2023-06-04T00:17:07;101409.53;;;21.31;62.99
12213;BME280;6169;44.158;22.788;2023-06-04T00:22:11;101420.94;;;20.90;64.45
12213;BME280;6169;44.158;22.788;2023-06-04T00:27:13;101423.41;;;20.57;65.00
12213;BME280;6169;44.158;22.788;2023-06-04T00:32:15;101422.66;;;20.86;62.76
12213;BME280;6169;44.158;22.788;2023-06-04T00:37:19;101425.69;;;20.84;63.70
12213;BME280;6169;44.158;22.788;2023-06-04T00:42:22;101426.16;;;20.57;62.79
12213;BME280;6169;44.158;22.788;2023-06-04T00:47:25;101421.53;;;20.47;63.71
12213;BME280;6169;44.158;22.788;2023-06-04T00:52:28;101427.38;;;20.80;62.63
12213;BME280;6169;44.158;22.788;2023-06-04T00:57:31;101428.19;;;20.46;62.35
12213;BME280;6169;44.158;22.788;2023-06-04T01:02:33;101433.47;;;20.38;61.20
12213;BME280;6169;44.158;22.788;2023-06-04T01:07:38;101430.13;;;20.46;63.65
12213;BME280;6169;44.158;22.788;2023-06-04T01:12:46;101437.78;;;20.54;60.34
12213;BME280;6169;44.158;22.788;2023-06-04T01:17:50;101437.31;;;20.37;60.82
12213;BME280;6169;44.158;22.788;2023-06-04T01:23:11;101442.13;;;20.21;61.94
12213;BME280;6169;44.158;22.788;2023-06-04T01:28:16;101448.94;;;20.34;61.37
12213;BME280;6169;44.158;22.788;2023-06-04T01:33:21;101455.22;;;20.49;63.27
12213;BME280;6169;44.158;22.788;2023-06-04T01:38:25;101453.78;;;20.57;62.16
12213;BME280;6169;44.158;22.788;2023-06-04T01:43:27;101452.63;;;20.19;61.53
12213;BME280;6169;44.158;22.788;2023-06-04T01:48:31;101455.34;;;19.33;63.84
12213;BME280;6169;44.158;22.788;2023-06-04T01:53:35;101466.19;;;20.05;63.20
12213;BME280;6169;44.158;22.788;2023-06-04T01:58:37;101456.81;;;20.01;62.09
12213;BME280;6169;44.158;22.788;2023-06-04T02:03:39;101462.69;;;19.89;63.16
12213;BME280;6169;44.158;22.788;2023-06-04T02:08:43;101468.78;;;19.81;61.26
12213;BME280;6169;44.158;22.788;2023-06-04T02:13:45;101471.88;;;19.49;61.98
12213;BME280;6169;44.158;22.788;2023-06-04T02:18:47;101484.00;;;19.53;63.83
12213;BME280;6169;44.158;22.788;2023-06-04T02:23:51;101486.19;;;19.41;59.61
12213;BME280;6169;44.158;22.788;2023-06-04T02:28:53;101499.97;;;19.41;60.21
12213;BME280;6169;44.158;22.788;2023-06-04T02:33:55;101502.75;;;19.00;60.21
12213;BME280;6169;44.158;22.788;2023-06-04T02:38:59;101506.28;;;19.77;60.48
12213;BME280;6169;44.158;22.788;2023-06-04T02:44:02;101515.69;;;19.60;59.47
12213;BME280;6169;44.158;22.788;2023-06-04T02:49:04;101525.91;;;19.60;60.57
12213;BME280;6169;44.158;22.788;2023-06-04T02:54:08;101532.16;;;18.05;63.72
12213;BME280;6169;44.158;22.788;2023-06-04T02:59:11;101534.69;;;18.80;63.16
12213;BME280;6169;44.158;22.788;2023-06-04T03:04:14;101543.47;;;18.72;61.33
12213;BME280;6169;44.158;22.788;2023-06-04T03:09:18;101544.97;;;18.32;62.24
12213;BME280;6169;44.158;22.788;2023-06-04T03:14:20;101556.06;;;18.58;61.85
12213;BME280;6169;44.158;22.788;2023-06-04T03:19:22;101557.09;;;18.41;61.80
12213;BME280;6169;44.158;22.788;2023-06-04T03:24:25;101572.53;;;17.95;63.68
12213;BME280;6169;44.158;22.788;2023-06-04T03:29:28;101572.28;;;17.96;60.14
12213;BME280;6169;44.158;22.788;2023-06-04T03:34:31;101570.09;;;17.98;61.43
12213;BME280;6169;44.158;22.788;2023-06-04T03:39:34;101576.78;;;18.13;58.95
12213;BME280;6169;44.158;22.788;2023-06-04T03:44:37;101579.78;;;18.06;58.81
12213;BME280;6169;44.158;22.788;2023-06-04T03:49:39;101578.19;;;18.15;59.57
12213;BME280;6169;44.158;22.788;2023-06-04T03:54:43;101595.28;;;17.85;57.96
12213;BME280;6169;44.158;22.788;2023-06-04T03:59:45;101590.38;;;17.87;58.60
12213;BME280;6169;44.158;22.788;2023-06-04T04:04:47;101585.09;;;17.86;60.40
12213;BME280;6169;44.158;22.788;2023-06-04T04:09:52;101603.13;;;17.34;59.89
12213;BME280;6169;44.158;22.788;2023-06-04T04:14:54;101609.47;;;17.67;58.05
12213;BME280;6169;44.158;22.788;2023-06-04T04:19:57;101616.72;;;17.78;56.81
12213;BME280;6169;44.158;22.788;2023-06-04T04:25:00;101611.28;;;18.31;56.18
12213;BME280;6169;44.158;22.788;2023-06-04T04:30:04;101608.94;;;18.65;54.69
12213;BME280;6169;44.158;22.788;2023-06-04T04:35:08;101612.66;;;18.33;58.55
12213;BME280;6169;44.158;22.788;2023-06-04T04:40:12;101611.63;;;19.23;53.77
12213;BME280;6169;44.158;22.788;2023-06-04T04:45:15;101619.03;;;18.97;53.39
12213;BME280;6169;44.158;22.788;2023-06-04T04:50:18;101609.56;;;18.72;55.32
12213;BME280;6169;44.158;22.788;2023-06-04T04:55:21;101614.69;;;19.31;56.68
12213;BME280;6169;44.158;22.788;2023-06-04T05:00:24;101605.34;;;19.53;52.95
12213;BME280;6169;44.158;22.788;2023-06-04T05:05:26;101613.59;;;19.63;54.15
12213;BME280;6169;44.158;22.788;2023-06-04T05:10:30;101618.31;;;19.73;53.90
12213;BME280;6169;44.158;22.788;2023-06-04T05:15:32;101621.91;;;19.73;53.01
12213;BME280;6169;44.158;22.788;2023-06-04T05:20:34;101626.81;;;19.41;53.40
12213;BME280;6169;44.158;22.788;2023-06-04T05:25:39;101628.53;;;19.62;55.66
12213;BME280;6169;44.158;22.788;2023-06-04T05:30:42;101633.31;;;18.83;51.96
12213;BME280;6169;44.158;22.788;2023-06-04T05:35:45;101619.00;;;18.91;52.17
12213;BME280;6169;44.158;22.788;2023-06-04T05:40:50;101641.75;;;17.81;55.93
12213;BME280;6169;44.158;22.788;2023-06-04T05:45:52;101633.38;;;18.41;56.51
12213;BME280;6169;44.158;22.788;2023-06-04T05:50:55;101644.19;;;18.58;56.57
12213;BME280;6169;44.158;22.788;2023-06-04T05:55:58;101648.75;;;18.37;57.65
12213;BME280;6169;44.158;22.788;2023-06-04T06:01:01;101642.66;;;17.92;58.19
12213;BME280;6169;44.158;22.788;2023-06-04T06:06:03;101657.16;;;18.15;57.94
12213;BME280;6169;44.158;22.788;2023-06-04T06:11:08;101670.75;;;18.32;56.25
12213;BME280;6169;44.158;22.788;2023-06-04T06:16:10;101663.69;;;19.09;56.78
12213;BME280;6169;44.158;22.788;2023-06-04T06:21:12;101671.03;;;17.66;58.79
12213;BME280;6169;44.158;22.788;2023-06-04T06:26:16;101674.91;;;18.34;57.25
12213;BME280;6169;44.158;22.788;2023-06-04T06:31:19;101673.69;;;18.15;55.60
12213;BME280;6169;44.158;22.788;2023-06-04T06:36:21;101680.13;;;17.39;54.98
12213;BME280;6169;44.158;22.788;2023-06-04T06:41:25;101684.53;;;18.84;51.94
12213;BME280;6169;44.158;22.788;2023-06-04T06:46:27;101689.78;;;18.86;51.75
12213;BME280;6169;44.158;22.788;2023-06-04T06:51:30;101695.88;;;18.40;53.00
12213;BME280;6169;44.158;22.788;2023-06-04T06:56:34;101694.25;;;18.49;51.02
12213;BME280;6169;44.158;22.788;2023-06-04T07:01:36;101700.22;;;18.79;52.54
12213;BME280;6169;44.158;22.788;2023-06-04T07:06:38;101706.78;;;19.30;50.69
12213;BME280;6169;44.158;22.788;2023-06-04T07:11:41;101711.00;;;18.90;51.85
12213;BME280;6169;44.158;22.788;2023-06-04T07:16:44;101719.06;;;19.02;51.79
12213;BME280;6169;44.158;22.788;2023-06-04T07:21:46;101720.41;;;19.93;50.72
12213;BME280;6169;44.158;22.788;2023-06-04T07:26:50;101729.47;;;19.53;50.76
12213;BME280;6169;44.158;22.788;2023-06-04T07:31:52;101743.22;;;18.85;52.38
12213;BME280;6169;44.158;22.788;2023-06-04T07:36:54;101744.25;;;19.31;50.67
12213;BME280;6169;44.158;22.788;2023-06-04T07:41:58;101750.22;;;19.03;50.51
12213;BME280;6169;44.158;22.788;2023-06-04T07:47:00;101753.28;;;19.11;52.54
12213;BME280;6169;44.158;22.788;2023-06-04T07:52:03;101655.31;;;18.78;53.10
12213;BME280;6169;44.158;22.788;2023-06-04T07:57:06;101767.69;;;19.29;50.14
12213;BME280;6169;44.158;22.788;2023-06-04T08:02:09;101758.94;;;18.84;52.35
12213;BME280;6169;44.158;22.788;2023-06-04T08:07:11;101765.00;;;19.49;51.69
12213;BME280;6169;44.158;22.788;2023-06-04T08:12:15;101772.56;;;20.05;50.23
12213;BME280;6169;44.158;22.788;2023-06-04T08:17:18;101777.59;;;19.30;50.86
12213;BME280;6169;44.158;22.788;2023-06-04T08:22:20;101768.72;;;19.17;50.34
12213;BME280;6169;44.158;22.788;2023-06-04T08:27:24;101785.88;;;19.35;51.89
12213;BME280;6169;44.158;22.788;2023-06-04T08:32:26;101787.44;;;19.78;51.61
12213;BME280;6169;44.158;22.788;2023-06-04T08:37:28;101793.22;;;19.09;50.31
12213;BME280;6169;44.158;22.788;2023-06-04T08:42:38;101797.09;;;19.13;53.27
12213;BME280;6169;44.158;22.788;2023-06-04T08:47:44;101797.75;;;19.35;51.63
12213;BME280;6169;44.158;22.788;2023-06-04T08:52:47;101800.16;;;18.37;52.79
12213;BME280;6169;44.158;22.788;2023-06-04T08:57:51;101807.13;;;18.82;52.68
12213;BME280;6169;44.158;22.788;2023-06-04T09:02:54;101810.28;;;19.01;52.38
12213;BME280;6169;44.158;22.788;2023-06-04T09:08:00;101809.69;;;18.93;53.21
12213;BME280;6169;44.158;22.788;2023-06-04T09:13:06;101814.72;;;19.07;53.09
12213;BME280;6169;44.158;22.788;2023-06-04T09:18:11;101811.81;;;18.81;52.76
12213;BME280;6169;44.158;22.788;2023-06-04T09:23:13;101817.53;;;19.17;56.42
12213;BME280;6169;44.158;22.788;2023-06-04T09:28:18;101804.22;;;19.56;52.87
12213;BME280;6169;44.158;22.788;2023-06-04T09:33:22;101813.25;;;19.47;52.93
12213;BME280;6169;44.158;22.788;2023-06-04T09:38:34;101826.84;;;18.68;55.02
12213;BME280;6169;44.158;22.788;2023-06-04T09:43:38;101829.81;;;18.57;55.77
12213;BME280;6169;44.158;22.788;2023-06-04T09:48:40;101834.63;;;18.71;56.24
12213;BME280;6169;44.158;22.788;2023-06-04T09:53:53;101824.66;;;19.08;57.45
12213;BME280;6169;44.158;22.788;2023-06-04T09:58:58;101838.03;;;18.89;53.41
12213;BME280;6169;44.158;22.788;2023-06-04T10:04:03;101829.34;;;19.70;54.29
12213;BME280;6169;44.158;22.788;2023-06-04T10:09:06;101834.38;;;19.26;52.11
12213;BME280;6169;44.158;22.788;2023-06-04T10:14:17;101840.00;;;18.93;52.88
12213;BME280;6169;44.158;22.788;2023-06-04T10:19:21;101834.50;;;18.99;53.50
12213;BME280;6169;44.158;22.788;2023-06-04T10:24:24;101831.84;;;19.14;53.67
12213;BME280;6169;44.158;22.788;2023-06-04T10:29:30;101836.03;;;19.95;53.81
12213;BME280;6169;44.158;22.788;2023-06-04T10:34:32;101842.03;;;19.61;51.55
12213;BME280;6169;44.158;22.788;2023-06-04T10:39:34;101839.13;;;20.19;50.75
12213;BME280;6169;44.158;22.788;2023-06-04T10:44:46;101831.34;;;20.11;51.75
12213;BME280;6169;44.158;22.788;2023-06-04T10:49:49;101836.31;;;19.98;52.15
12213;BME280;6169;44.158;22.788;2023-06-04T10:55:03;101832.56;;;18.57;55.77
12213;BME280;6169;44.158;22.788;2023-06-04T11:00:08;101825.22;;;19.68;53.03
12213;BME280;6169;44.158;22.788;2023-06-04T11:05:11;101833.13;;;19.49;52.17
12213;BME280;6169;44.158;22.788;2023-06-04T11:10:13;101835.31;;;19.47;54.39
12213;BME280;6169;44.158;22.788;2023-06-04T11:15:17;101824.69;;;19.18;52.16
12213;BME280;6169;44.158;22.788;2023-06-04T11:20:21;101829.72;;;20.20;51.73
12213;BME280;6169;44.158;22.788;2023-06-04T11:25:24;101830.72;;;19.68;52.12
12213;BME280;6169;44.158;22.788;2023-06-04T11:30:28;101820.75;;;19.56;52.54
12213;BME280;6169;44.158;22.788;2023-06-04T11:35:32;101808.78;;;20.34;51.53
12213;BME280;6169;44.158;22.788;2023-06-04T11:40:41;101828.44;;;19.44;51.32
12213;BME280;6169;44.158;22.788;2023-06-04T11:45:46;101818.44;;;20.26;50.08
12213;BME280;6169;44.158;22.788;2023-06-04T11:50:49;101815.94;;;20.50;50.19
12213;BME280;6169;44.158;22.788;2023-06-04T11:55:51;101806.00;;;20.19;50.17
12213;BME280;6169;44.158;22.788;2023-06-04T12:00:57;101806.28;;;20.33;49.60
12213;BME280;6169;44.158;22.788;2023-06-04T12:06:12;101807.94;;;20.34;48.28
12213;BME280;6169;44.158;22.788;2023-06-04T12:11:27;101779.44;;;19.87;50.69
12213;BME280;6169;44.158;22.788;2023-06-04T12:16:30;101799.63;;;19.98;48.26
12213;BME280;6169;44.158;22.788;2023-06-04T12:21:33;101794.13;;;20.39;48.57
12213;BME280;6169;44.158;22.788;2023-06-04T12:26:36;101798.78;;;20.08;49.54
12213;BME280;6169;44.158;22.788;2023-06-04T12:31:43;101801.03;;;20.26;47.51
12213;BME280;6169;44.158;22.788;2023-06-04T12:36:46;101797.44;;;20.51;47.62
12213;BME280;6169;44.158;22.788;2023-06-04T12:41:48;101801.53;;;20.02;50.85
12213;BME280;6169;44.158;22.788;2023-06-04T12:46:52;101802.13;;;20.56;49.82
12213;BME280;6169;44.158;22.788;2023-06-04T12:51:54;101799.34;;;20.66;50.05
12213;BME280;6169;44.158;22.788;2023-06-04T12:56:57;101793.81;;;20.86;49.33
12213;BME280;6169;44.158;22.788;2023-06-04T13:02:05;101794.06;;;20.80;47.32
12213;BME280;6169;44.158;22.788;2023-06-04T13:07:07;101790.50;;;20.54;47.95
12213;BME280;6169;44.158;22.788;2023-06-04T13:12:11;101780.81;;;20.87;47.70
12213;BME280;6169;44.158;22.788;2023-06-04T13:17:15;101778.03;;;20.92;45.92
12213;BME280;6169;44.158;22.788;2023-06-04T13:22:17;101765.94;;;20.11;47.51
12213;BME280;6169;44.158;22.788;2023-06-04T13:27:19;101778.59;;;20.79;46.65
12213;BME280;6169;44.158;22.788;2023-06-04T13:32:23;101764.53;;;20.65;47.07
12213;BME280;6169;44.158;22.788;2023-06-04T13:37:25;101770.81;;;21.01;47.09
12213;BME280;6169;44.158;22.788;2023-06-04T13:42:28;101768.31;;;21.70;45.50
12213;BME280;6169;44.158;22.788;2023-06-04T13:47:31;101758.88;;;21.71;45.36
12213;BME280;6169;44.158;22.788;2023-06-04T13:52:33;101754.63;;;21.39;46.32
12213;BME280;6169;44.158;22.788;2023-06-04T13:57:36;101751.41;;;21.22;46.44
12213;BME280;6169;44.158;22.788;2023-06-04T14:02:39;101744.81;;;21.07;45.85
12213;BME280;6169;44.158;22.788;2023-06-04T14:07:42;101738.53;;;21.46;45.33
12213;BME280;6169;44.158;22.788;2023-06-04T14:12:44;101732.19;;;20.70;46.18
12213;BME280;6169;44.158;22.788;2023-06-04T14:17:49;101724.50;;;21.32;46.11
12213;BME280;6169;44.158;22.788;2023-06-04T14:22:51;101731.72;;;21.78;45.40
12213;BME280;6169;44.158;22.788;2023-06-04T14:27:53;101726.41;;;21.37;45.09
12213;BME280;6169;44.158;22.788;2023-06-04T14:32:58;101721.72;;;21.82;45.38
12213;BME280;6169;44.158;22.788;2023-06-04T14:38:00;101724.72;;;22.20;43.59
12213;BME280;6169;44.158;22.788;2023-06-04T14:43:02;101718.66;;;21.83;45.22
12213;BME280;6169;44.158;22.788;2023-06-04T14:48:06;101716.88;;;21.98;44.28
12213;BME280;6169;44.158;22.788;2023-06-04T14:53:08;101710.00;;;21.95;44.09
12213;BME280;6169;44.158;22.788;2023-06-04T14:58:10;101708.31;;;21.94;44.25
12213;BME280;6169;44.158;22.788;2023-06-04T15:03:14;101687.81;;;22.30;42.76
12213;BME280;6169;44.158;22.788;2023-06-04T15:08:16;101684.63;;;22.17;42.54
12213;BME280;6169;44.158;22.788;2023-06-04T15:13:18;101690.34;;;21.92;44.89
12213;BME280;6169;44.158;22.788;2023-06-04T15:18:22;101679.06;;;21.83;43.06
12213;BME280;6169;44.158;22.788;2023-06-04T15:23:24;101672.22;;;21.75;43.20
12213;BME280;6169;44.158;22.788;2023-06-04T15:28:26;101667.53;;;21.76;42.70
12213;BME280;6169;44.158;22.788;2023-06-04T15:33:30;101671.06;;;22.16;43.48
12213;BME280;6169;44.158;22.788;2023-06-04T15:38:32;101667.53;;;22.05;43.00
12213;BME280;6169;44.158;22.788;2023-06-04T15:43:35;101673.50;;;22.46;43.54
12213;BME280;6169;44.158;22.788;2023-06-04T15:48:38;101666.31;;;22.45;42.93
12213;BME280;6169;44.158;22.788;2023-06-04T15:53:40;101671.97;;;22.35;43.04
12213;BME280;6169;44.158;22.788;2023-06-04T15:58:43;101671.72;;;22.32;43.37
12213;BME280;6169;44.158;22.788;2023-06-04T16:03:47;101674.94;;;21.41;46.26
12213;BME280;6169;44.158;22.788;2023-06-04T16:08:49;101671.22;;;20.52;46.35
12213;BME280;6169;44.158;22.788;2023-06-04T16:13:51;101676.22;;;21.09;46.76
12213;BME280;6169;44.158;22.788;2023-06-04T16:18:55;101679.16;;;21.73;45.33
12213;BME280;6169;44.158;22.788;2023-06-04T16:23:57;101678.66;;;21.21;45.49
12213;BME280;6169;44.158;22.788;2023-06-04T16:28:59;101661.06;;;21.51;45.58
12213;BME280;6169;44.158;22.788;2023-06-04T16:34:03;101673.88;;;22.05;44.97
12213;BME280;6169;44.158;22.788;2023-06-04T16:39:05;101672.69;;;21.48;44.63
12213;BME280;6169;44.158;22.788;2023-06-04T16:44:07;101669.50;;;21.70;44.63
12213;BME280;6169;44.158;22.788;2023-06-04T16:49:11;101659.63;;;21.59;44.67
12213;BME280;6169;44.158;22.788;2023-06-04T16:54:13;101658.13;;;21.72;44.09
12213;BME280;6169;44.158;22.788;2023-06-04T16:59:16;101659.25;;;21.26;45.42
12213;BME280;6169;44.158;22.788;2023-06-04T17:04:20;101666.59;;;21.51;44.99
12213;BME280;6169;44.158;22.788;2023-06-04T17:09:22;101667.63;;;21.60;45.26
12213;BME280;6169;44.158;22.788;2023-06-04T17:14:24;101661.88;;;21.52;44.17
12213;BME280;6169;44.158;22.788;2023-06-04T17:19:28;101651.00;;;21.66;46.21
12213;BME280;6169;44.158;22.788;2023-06-04T17:24:32;101650.81;;;21.47;45.53
12213;BME280;6169;44.158;22.788;2023-06-04T17:29:34;101649.75;;;21.43;45.53
12213;BME280;6169;44.158;22.788;2023-06-04T17:34:38;101646.75;;;21.39;46.05
12213;BME280;6169;44.158;22.788;2023-06-04T17:39:40;101654.50;;;21.37;46.54
12213;BME280;6169;44.158;22.788;2023-06-04T17:44:42;101642.81;;;21.45;47.32
12213;BME280;6169;44.158;22.788;2023-06-04T17:49:48;101582.94;;;20.81;46.93
12213;BME280;6169;44.158;22.788;2023-06-04T17:54:50;101646.75;;;21.39;47.98
12213;BME280;6169;44.158;22.788;2023-06-04T17:59:53;101646.09;;;21.52;48.27
12213;BME280;6169;44.158;22.788;2023-06-04T18:04:58;101634.53;;;21.50;49.09
12213;BME280;6169;44.158;22.788;2023-06-04T18:10:00;101633.06;;;21.19;49.80
12213;BME280;6169;44.158;22.788;2023-06-04T18:15:03;101607.09;;;21.14;50.30
12213;BME280;6169;44.158;22.788;2023-06-04T18:20:09;101628.59;;;21.23;49.71
12213;BME280;6169;44.158;22.788;2023-06-04T18:25:12;101634.00;;;21.38;49.54
12213;BME280;6169;44.158;22.788;2023-06-04T18:30:15;101619.91;;;20.95;51.67
12213;BME280;6169;44.158;22.788;2023-06-04T18:35:19;101626.66;;;20.68;52.38
12213;BME280;6169;44.158;22.788;2023-06-04T18:40:22;101646.97;;;20.13;54.39
12213;BME280;6169;44.158;22.788;2023-06-04T18:45:25;101658.81;;;20.39;53.99
12213;BME280;6169;44.158;22.788;2023-06-04T18:50:29;101523.16;;;19.39;54.50
12213;BME280;6169;44.158;22.788;2023-06-04T18:55:32;101672.81;;;20.68;53.22
12213;BME280;6169;44.158;22.788;2023-06-04T19:00:35;101656.19;;;20.73;52.99
12213;BME280;6169;44.158;22.788;2023-06-04T19:05:40;101659.53;;;20.65;53.70
12213;BME280;6169;44.158;22.788;2023-06-04T19:10:43;101668.75;;;20.40;54.74
12213;BME280;6169;44.158;22.788;2023-06-04T19:15:46;101671.44;;;20.65;54.27
12213;BME280;6169;44.158;22.788;2023-06-04T19:20:53;101671.78;;;20.48;54.37
12213;BME280;6169;44.158;22.788;2023-06-04T19:25:57;101662.16;;;20.20;55.17
12213;BME280;6169;44.158;22.788;2023-06-04T19:30:59;101644.47;;;20.11;56.61
12213;BME280;6169;44.158;22.788;2023-06-04T19:36:05;101669.34;;;20.06;55.94
12213;BME280;6169;44.158;22.788;2023-06-04T19:41:07;101668.53;;;20.16;56.16
12213;BME280;6169;44.158;22.788;2023-06-04T19:46:09;101671.53;;;19.94;56.83
12213;BME280;6169;44.158;22.788;2023-06-04T19:51:13;101672.63;;;20.03;56.86
12213;BME280;6169;44.158;22.788;2023-06-04T19:56:16;101672.09;;;20.01;56.80
12213;BME280;6169;44.158;22.788;2023-06-04T20:01:18;101680.91;;;20.13;56.18
12213;BME280;6169;44.158;22.788;2023-06-04T20:06:21;101668.78;;;20.19;56.02
12213;BME280;6169;44.158;22.788;2023-06-04T20:11:24;101663.81;;;20.16;56.14
12213;BME280;6169;44.158;22.788;2023-06-04T20:16:26;101676.53;;;19.81;57.45
12213;BME280;6169;44.158;22.788;2023-06-04T20:21:31;101678.75;;;20.15;56.12
12213;BME280;6169;44.158;22.788;2023-06-04T20:26:34;101678.16;;;19.82;57.56
12213;BME280;6169;44.158;22.788;2023-06-04T20:31:36;101673.75;;;19.71;57.60
12213;BME280;6169;44.158;22.788;2023-06-04T20:36:40;101668.78;;;19.89;57.49
12213;BME280;6169;44.158;22.788;2023-06-04T20:41:42;101671.56;;;19.73;57.79
12213;BME280;6169;44.158;22.788;2023-06-04T20:46:44;101670.16;;;20.01;57.49
12213;BME280;6169;44.158;22.788;2023-06-04T20:51:48;101664.94;;;19.90;57.85
12213;BME280;6169;44.158;22.788;2023-06-04T20:56:50;101665.19;;;19.98;57.40
12213;BME280;6169;44.158;22.788;2023-06-04T21:01:52;101662.44;;;19.98;57.49
12213;BME280;6169;44.158;22.788;2023-06-04T21:06:56;101663.81;;;19.55;58.33
12213;BME280;6169;44.158;22.788;2023-06-04T21:11:58;101659.38;;;20.05;57.55
12213;BME280;6169;44.158;22.788;2023-06-04T21:17:00;101657.47;;;19.90;57.74
12213;BME280;6169;44.158;22.788;2023-06-04T21:22:04;101651.13;;;19.54;58.68
12213;BME280;6169;44.158;22.788;2023-06-04T21:27:07;101659.13;;;19.86;57.76
12213;BME280;6169;44.158;22.788;2023-06-04T21:32:09;101644.50;;;19.45;58.86
12213;BME280;6169;44.158;22.788;2023-06-04T21:37:12;101646.19;;;19.61;58.73
12213;BME280;6169;44.158;22.788;2023-06-04T21:42:14;101644.78;;;19.84;58.17
12213;BME280;6169;44.158;22.788;2023-06-04T21:47:19;101631.53;;;19.91;57.67
12213;BME280;6169;44.158;22.788;2023-06-04T21:52:23;101636.22;;;19.55;58.41
12213;BME280;6169;44.158;22.788;2023-06-04T21:57:25;101622.41;;;19.80;57.80
12213;BME280;6169;44.158;22.788;2023-06-04T22:02:27;101637.59;;;19.98;57.23
12213;BME280;6169;44.158;22.788;2023-06-04T22:07:31;101648.91;;;19.92;57.64
12213;BME280;6169;44.158;22.788;2023-06-04T22:12:34;101644.75;;;19.94;57.11
12213;BME280;6169;44.158;22.788;2023-06-04T22:17:36;101641.75;;;20.01;57.31
12213;BME280;6169;44.158;22.788;2023-06-04T22:22:40;101646.16;;;19.97;57.61
12213;BME280;6169;44.158;22.788;2023-06-04T22:27:42;101650.03;;;19.75;58.50
12213;BME280;6169;44.158;22.788;2023-06-04T22:32:44;101635.63;;;19.27;61.59
12213;BME280;6169;44.158;22.788;2023-06-04T22:37:48;101634.72;;;19.01;62.48
12213;BME280;6169;44.158;22.788;2023-06-04T22:42:50;101641.66;;;19.14;61.99
12213;BME280;6169;44.158;22.788;2023-06-04T22:47:52;101634.00;;;19.47;61.83
12213;BME280;6169;44.158;22.788;2023-06-04T22:52:56;101492.47;;;18.69;61.26
12213;BME280;6169;44.158;22.788;2023-06-04T22:57:58;101630.13;;;19.37;61.35
12213;BME280;6169;44.158;22.788;2023-06-04T23:03:00;101632.66;;;19.54;60.56
12213;BME280;6169;44.158;22.788;2023-06-04T23:08:04;101624.66;;;19.78;60.32
12213;BME280;6169;44.158;22.788;2023-06-04T23:13:06;101617.47;;;19.88;59.48
12213;BME280;6169;44.158;22.788;2023-06-04T23:18:08;101622.44;;;19.70;60.74
12213;BME280;6169;44.158;22.788;2023-06-04T23:23:12;101618.84;;;19.54;61.11
12213;BME280;6169;44.158;22.788;2023-06-04T23:28:14;101613.63;;;19.78;60.18
12213;BME280;6169;44.158;22.788;2023-06-04T23:33:16;101621.88;;;19.94;59.33
12213;BME280;6169;44.158;22.788;2023-06-04T23:38:20;101623.84;;;19.78;60.30
12213;BME280;6169;44.158;22.788;2023-06-04T23:43:22;101619.69;;;19.65;61.04
12213;BME280;6169;44.158;22.788;2023-06-04T23:48:24;101618.28;;;19.88;59.62
12213;BME280;6169;44.158;22.788;2023-06-04T23:53:28;101620.22;;;19.77;60.61
12213;BME280;6169;44.158;22.788;2023-06-04T23:58:30;101612.50;;;19.74;60.43
